sensor_id;sensor_type;location;lat;lon;timestamp;P1;durP1;ratioP1;P2;durP2;ratioP2
48516;SDS011;34310;51.904;4.256;2023-06-14T00:01:48;2.78;;;1.90;;
48516;SDS011;34310;51.904;4.256;2023-06-14T00:04:16;2.10;;;1.80;;
48516;SDS011;34310;51.904;4.256;2023-06-14T00:06:44;2.08;;;1.67;;
48516;SDS011;34310;51.904;4.256;2023-06-14T00:09:11;4.30;;;1.83;;
48516;SDS011;34310;51.904;4.256;2023-06-14T00:11:40;1.90;;;1.70;;
48516;SDS011;34310;51.904;4.256;2023-06-14T00:14:07;2.22;;;2.00;;
48516;SDS011;34310;51.904;4.256;2023-06-14T00:16:35;2.22;;;1.92;;
48516;SDS011;34310;51.904;4.256;2023-06-14T00:19:05;2.13;;;1.92;;
48516;SDS011;34310;51.904;4.256;2023-06-14T00:21:32;2.45;;;1.65;;
48516;SDS011;34310;51.904;4.256;2023-06-14T00:24:01;3.55;;;1.98;;
48516;SDS011;34310;51.904;4.256;2023-06-14T00:26:28;1.90;;;1.60;;
48516;SDS011;34310;51.904;4.256;2023-06-14T00:28:56;2.30;;;1.90;;
48516;SDS011;34310;51.904;4.256;2023-06-14T00:31:23;2.42;;;1.75;;
48516;SDS011;34310;51.904;4.256;2023-06-14T00:33:51;2.13;;;1.80;;
48516;SDS011;34310;51.904;4.256;2023-06-14T00:36:18;2.45;;;1.70;;
48516;SDS011;34310;51.904;4.256;2023-06-14T00:38:46;3.08;;;1.88;;
48516;SDS011;34310;51.904;4.256;2023-06-14T00:41:13;2.17;;;1.98;;
48516;SDS011;34310;51.904;4.256;2023-06-14T00:43:41;1.80;;;1.70;;
48516;SDS011;34310;51.904;4.256;2023-06-14T00:46:08;2.22;;;1.75;;
48516;SDS011;34310;51.904;4.256;2023-06-14T00:48:36;2.53;;;1.95;;
48516;SDS011;34310;51.904;4.256;2023-06-14T00:51:04;2.10;;;1.88;;
48516;SDS011;34310;51.904;4.256;2023-06-14T00:53:32;3.03;;;2.10;;
48516;SDS011;34310;51.904;4.256;2023-06-14T00:56:02;2.97;;;2.05;;
48516;SDS011;34310;51.904;4.256;2023-06-14T00:58:29;3.08;;;1.98;;
48516;SDS011;34310;51.904;4.256;2023-06-14T01:00:58;1.90;;;1.70;;
48516;SDS011;34310;51.904;4.256;2023-06-14T01:03:26;2.60;;;1.80;;
48516;SDS011;34310;51.904;4.256;2023-06-14T01:05:58;3.78;;;1.88;;
48516;SDS011;34310;51.904;4.256;2023-06-14T01:12:29;4.45;;;2.00;;
48516;SDS011;34310;51.904;4.256;2023-06-14T01:14:58;4.00;;;1.85;;
48516;SDS011;34310;51.904;4.256;2023-06-14T01:17:27;2.75;;;1.75;;
48516;SDS011;34310;51.904;4.256;2023-06-14T01:19:58;1.90;;;1.70;;
48516;SDS011;34310;51.904;4.256;2023-06-14T01:22:29;2.17;;;1.75;;
48516;SDS011;34310;51.904;4.256;2023-06-14T01:24:57;1.83;;;1.70;;
48516;SDS011;34310;51.904;4.256;2023-06-14T01:27:24;2.30;;;1.85;;
48516;SDS011;34310;51.904;4.256;2023-06-14T01:29:55;2.00;;;1.80;;
48516;SDS011;34310;51.904;4.256;2023-06-14T01:32:24;1.73;;;1.60;;
48516;SDS011;34310;51.904;4.256;2023-06-14T01:34:53;3.05;;;1.80;;
48516;SDS011;34310;51.904;4.256;2023-06-14T01:37:21;2.05;;;1.50;;
48516;SDS011;34310;51.904;4.256;2023-06-14T01:39:48;2.00;;;1.70;;
48516;SDS011;34310;51.904;4.256;2023-06-14T01:42:16;2.83;;;1.83;;
48516;SDS011;34310;51.904;4.256;2023-06-14T01:44:46;2.25;;;1.88;;
48516;SDS011;34310;51.904;4.256;2023-06-14T01:47:14;3.75;;;1.85;;
48516;SDS011;34310;51.904;4.256;2023-06-14T01:49:42;2.20;;;1.90;;
48516;SDS011;34310;51.904;4.256;2023-06-14T01:52:09;1.83;;;1.50;;
48516;SDS011;34310;51.904;4.256;2023-06-14T01:54:36;1.92;;;1.60;;
48516;SDS011;34310;51.904;4.256;2023-06-14T01:57:08;2.40;;;1.77;;
48516;SDS011;34310;51.904;4.256;2023-06-14T01:59:37;3.75;;;1.90;;
48516;SDS011;34310;51.904;4.256;2023-06-14T02:02:04;3.17;;;1.75;;
48516;SDS011;34310;51.904;4.256;2023-06-14T02:04:31;3.80;;;2.10;;
48516;SDS011;34310;51.904;4.256;2023-06-14T02:06:59;2.17;;;1.83;;
48516;SDS011;34310;51.904;4.256;2023-06-14T02:09:27;1.90;;;1.60;;
48516;SDS011;34310;51.904;4.256;2023-06-14T02:11:54;2.60;;;1.70;;
48516;SDS011;34310;51.904;4.256;2023-06-14T02:14:21;2.72;;;1.63;;
48516;SDS011;34310;51.904;4.256;2023-06-14T02:16:49;2.65;;;1.70;;
48516;SDS011;34310;51.904;4.256;2023-06-14T02:19:17;2.15;;;1.70;;
48516;SDS011;34310;51.904;4.256;2023-06-14T02:21:46;2.95;;;1.90;;
48516;SDS011;34310;51.904;4.256;2023-06-14T02:24:13;2.28;;;1.98;;
48516;SDS011;34310;51.904;4.256;2023-06-14T02:26:41;2.28;;;1.90;;
48516;SDS011;34310;51.904;4.256;2023-06-14T02:29:08;2.88;;;1.83;;
48516;SDS011;34310;51.904;4.256;2023-06-14T02:31:38;2.33;;;2.00;;
48516;SDS011;34310;51.904;4.256;2023-06-14T02:34:06;2.15;;;1.92;;
48516;SDS011;34310;51.904;4.256;2023-06-14T02:36:36;2.50;;;1.63;;
48516;SDS011;34310;51.904;4.256;2023-06-14T02:39:08;1.95;;;1.70;;
48516;SDS011;34310;51.904;4.256;2023-06-14T02:41:36;2.78;;;1.90;;
48516;SDS011;34310;51.904;4.256;2023-06-14T02:44:04;3.03;;;2.03;;
48516;SDS011;34310;51.904;4.256;2023-06-14T02:46:32;1.95;;;1.80;;
48516;SDS011;34310;51.904;4.256;2023-06-14T02:48:59;1.90;;;1.80;;
48516;SDS011;34310;51.904;4.256;2023-06-14T02:51:27;2.65;;;2.03;;
48516;SDS011;34310;51.904;4.256;2023-06-14T02:53:55;2.40;;;1.95;;
48516;SDS011;34310;51.904;4.256;2023-06-14T02:56:22;1.83;;;1.65;;
48516;SDS011;34310;51.904;4.256;2023-06-14T02:58:49;2.83;;;1.90;;
48516;SDS011;34310;51.904;4.256;2023-06-14T03:01:17;2.35;;;1.77;;
48516;SDS011;34310;51.904;4.256;2023-06-14T03:03:47;2.60;;;1.80;;
48516;SDS011;34310;51.904;4.256;2023-06-14T03:06:14;2.17;;;1.90;;
48516;SDS011;34310;51.904;4.256;2023-06-14T03:08:43;2.22;;;2.03;;
48516;SDS011;34310;51.904;4.256;2023-06-14T03:11:11;2.80;;;2.13;;
48516;SDS011;34310;51.904;4.256;2023-06-14T03:13:38;2.15;;;1.95;;
48516;SDS011;34310;51.904;4.256;2023-06-14T03:16:07;2.97;;;2.08;;
48516;SDS011;34310;51.904;4.256;2023-06-14T03:18:36;2.92;;;2.03;;
48516;SDS011;34310;51.904;4.256;2023-06-14T03:21:03;5.07;;;2.22;;
48516;SDS011;34310;51.904;4.256;2023-06-14T03:23:31;4.50;;;1.80;;
48516;SDS011;34310;51.904;4.256;2023-06-14T03:25:58;2.08;;;1.80;;
48516;SDS011;34310;51.904;4.256;2023-06-14T03:28:25;2.78;;;1.70;;
48516;SDS011;34310;51.904;4.256;2023-06-14T03:30:53;3.47;;;2.08;;
48516;SDS011;34310;51.904;4.256;2023-06-14T03:33:20;2.35;;;1.90;;
48516;SDS011;34310;51.904;4.256;2023-06-14T03:35:48;2.55;;;1.75;;
48516;SDS011;34310;51.904;4.256;2023-06-14T03:38:15;1.98;;;1.75;;
48516;SDS011;34310;51.904;4.256;2023-06-14T03:40:43;1.90;;;1.80;;
48516;SDS011;34310;51.904;4.256;2023-06-14T03:43:10;3.20;;;2.05;;
48516;SDS011;34310;51.904;4.256;2023-06-14T03:45:38;2.55;;;2.00;;
48516;SDS011;34310;51.904;4.256;2023-06-14T03:48:05;2.15;;;1.95;;
48516;SDS011;34310;51.904;4.256;2023-06-14T03:50:35;2.17;;;1.70;;
48516;SDS011;34310;51.904;4.256;2023-06-14T03:53:04;2.42;;;2.17;;
48516;SDS011;34310;51.904;4.256;2023-06-14T03:55:32;3.05;;;1.80;;
48516;SDS011;34310;51.904;4.256;2023-06-14T03:58:02;3.67;;;2.03;;
48516;SDS011;34310;51.904;4.256;2023-06-14T04:00:30;2.50;;;1.98;;
48516;SDS011;34310;51.904;4.256;2023-06-14T04:02:58;2.22;;;1.92;;
48516;SDS011;34310;51.904;4.256;2023-06-14T04:05:25;3.15;;;2.00;;
48516;SDS011;34310;51.904;4.256;2023-06-14T04:07:53;3.10;;;1.90;;
48516;SDS011;34310;51.904;4.256;2023-06-14T04:10:22;3.75;;;1.70;;
48516;SDS011;34310;51.904;4.256;2023-06-14T04:12:49;2.42;;;2.00;;
48516;SDS011;34310;51.904;4.256;2023-06-14T04:15:18;2.70;;;1.95;;
48516;SDS011;34310;51.904;4.256;2023-06-14T04:17:47;1.88;;;1.70;;
48516;SDS011;34310;51.904;4.256;2023-06-14T04:20:15;2.83;;;1.98;;
48516;SDS011;34310;51.904;4.256;2023-06-14T04:22:43;2.72;;;1.85;;
48516;SDS011;34310;51.904;4.256;2023-06-14T04:25:10;2.28;;;1.70;;
48516;SDS011;34310;51.904;4.256;2023-06-14T04:27:38;2.10;;;1.90;;
48516;SDS011;34310;51.904;4.256;2023-06-14T04:30:06;2.67;;;1.83;;
48516;SDS011;34310;51.904;4.256;2023-06-14T04:32:33;2.85;;;1.95;;
48516;SDS011;34310;51.904;4.256;2023-06-14T04:35:06;3.30;;;1.92;;
48516;SDS011;34310;51.904;4.256;2023-06-14T04:37:34;1.85;;;1.70;;
48516;SDS011;34310;51.904;4.256;2023-06-14T04:40:06;2.88;;;1.70;;
48516;SDS011;34310;51.904;4.256;2023-06-14T04:42:37;2.30;;;1.80;;
48516;SDS011;34310;51.904;4.256;2023-06-14T04:45:07;2.20;;;1.98;;
48516;SDS011;34310;51.904;4.256;2023-06-14T04:47:35;3.88;;;1.83;;
48516;SDS011;34310;51.904;4.256;2023-06-14T04:50:04;2.33;;;1.83;;
48516;SDS011;34310;51.904;4.256;2023-06-14T04:52:31;2.10;;;1.90;;
48516;SDS011;34310;51.904;4.256;2023-06-14T04:54:59;3.55;;;1.90;;
48516;SDS011;34310;51.904;4.256;2023-06-14T04:57:26;4.25;;;2.22;;
48516;SDS011;34310;51.904;4.256;2023-06-14T04:59:54;3.90;;;1.65;;
48516;SDS011;34310;51.904;4.256;2023-06-14T05:02:22;3.13;;;1.90;;
48516;SDS011;34310;51.904;4.256;2023-06-14T05:04:51;5.22;;;2.05;;
48516;SDS011;34310;51.904;4.256;2023-06-14T05:07:19;5.20;;;2.40;;
48516;SDS011;34310;51.904;4.256;2023-06-14T05:09:50;6.15;;;2.45;;
48516;SDS011;34310;51.904;4.256;2023-06-14T05:12:17;6.75;;;2.70;;
48516;SDS011;34310;51.904;4.256;2023-06-14T05:14:45;4.72;;;3.25;;
48516;SDS011;34310;51.904;4.256;2023-06-14T05:17:12;7.13;;;3.20;;
48516;SDS011;34310;51.904;4.256;2023-06-14T05:19:40;6.68;;;3.20;;
48516;SDS011;34310;51.904;4.256;2023-06-14T05:22:08;9.32;;;3.70;;
48516;SDS011;34310;51.904;4.256;2023-06-14T05:24:35;8.65;;;3.97;;
48516;SDS011;34310;51.904;4.256;2023-06-14T05:27:03;7.03;;;4.10;;
48516;SDS011;34310;51.904;4.256;2023-06-14T05:29:31;7.45;;;3.80;;
48516;SDS011;34310;51.904;4.256;2023-06-14T05:31:59;6.80;;;3.78;;
48516;SDS011;34310;51.904;4.256;2023-06-14T05:34:27;6.70;;;3.97;;
48516;SDS011;34310;51.904;4.256;2023-06-14T05:36:54;10.23;;;3.97;;
48516;SDS011;34310;51.904;4.256;2023-06-14T05:39:21;10.02;;;4.20;;
48516;SDS011;34310;51.904;4.256;2023-06-14T05:41:50;11.82;;;4.10;;
48516;SDS011;34310;51.904;4.256;2023-06-14T05:44:17;11.20;;;4.30;;
48516;SDS011;34310;51.904;4.256;2023-06-14T05:46:45;9.77;;;4.32;;
48516;SDS011;34310;51.904;4.256;2023-06-14T05:49:12;6.40;;;4.10;;
48516;SDS011;34310;51.904;4.256;2023-06-14T05:51:39;7.15;;;3.70;;
48516;SDS011;34310;51.904;4.256;2023-06-14T05:54:07;7.32;;;3.97;;
48516;SDS011;34310;51.904;4.256;2023-06-14T05:56:34;9.60;;;4.13;;
48516;SDS011;34310;51.904;4.256;2023-06-14T05:59:01;9.93;;;4.03;;
48516;SDS011;34310;51.904;4.256;2023-06-14T06:01:29;9.27;;;3.60;;
48516;SDS011;34310;51.904;4.256;2023-06-14T06:03:56;11.32;;;4.00;;
48516;SDS011;34310;51.904;4.256;2023-06-14T06:06:24;13.95;;;3.65;;
48516;SDS011;34310;51.904;4.256;2023-06-14T06:08:51;14.15;;;3.95;;
48516;SDS011;34310;51.904;4.256;2023-06-14T06:11:19;7.25;;;3.65;;
48516;SDS011;34310;51.904;4.256;2023-06-14T06:13:46;8.57;;;3.47;;
48516;SDS011;34310;51.904;4.256;2023-06-14T06:16:14;8.05;;;3.72;;
48516;SDS011;34310;51.904;4.256;2023-06-14T06:18:41;9.10;;;3.60;;
48516;SDS011;34310;51.904;4.256;2023-06-14T06:21:10;8.68;;;3.80;;
48516;SDS011;34310;51.904;4.256;2023-06-14T06:23:38;8.45;;;3.97;;
48516;SDS011;34310;51.904;4.256;2023-06-14T06:26:06;6.80;;;3.40;;
48516;SDS011;34310;51.904;4.256;2023-06-14T06:28:33;7.47;;;3.53;;
48516;SDS011;34310;51.904;4.256;2023-06-14T06:31:01;5.57;;;3.60;;
48516;SDS011;34310;51.904;4.256;2023-06-14T06:33:30;6.50;;;3.50;;
48516;SDS011;34310;51.904;4.256;2023-06-14T06:35:57;6.75;;;3.40;;
48516;SDS011;34310;51.904;4.256;2023-06-14T06:38:25;8.30;;;3.60;;
48516;SDS011;34310;51.904;4.256;2023-06-14T06:40:52;6.95;;;3.38;;
48516;SDS011;34310;51.904;4.256;2023-06-14T06:43:20;7.90;;;3.30;;
48516;SDS011;34310;51.904;4.256;2023-06-14T06:45:47;6.32;;;3.50;;
48516;SDS011;34310;51.904;4.256;2023-06-14T06:48:15;7.20;;;3.45;;
48516;SDS011;34310;51.904;4.256;2023-06-14T06:50:43;6.25;;;3.22;;
48516;SDS011;34310;51.904;4.256;2023-06-14T06:53:10;8.88;;;3.17;;
48516;SDS011;34310;51.904;4.256;2023-06-14T06:55:41;6.38;;;3.10;;
48516;SDS011;34310;51.904;4.256;2023-06-14T06:58:08;7.03;;;3.42;;
48516;SDS011;34310;51.904;4.256;2023-06-14T07:00:36;4.88;;;2.92;;
48516;SDS011;34310;51.904;4.256;2023-06-14T07:03:03;6.38;;;3.08;;
48516;SDS011;34310;51.904;4.256;2023-06-14T07:05:31;6.05;;;3.05;;
48516;SDS011;34310;51.904;4.256;2023-06-14T07:08:00;4.93;;;2.95;;
48516;SDS011;34310;51.904;4.256;2023-06-14T07:10:27;4.55;;;2.75;;
48516;SDS011;34310;51.904;4.256;2023-06-14T07:12:54;5.40;;;2.85;;
48516;SDS011;34310;51.904;4.256;2023-06-14T07:15:22;5.15;;;2.58;;
48516;SDS011;34310;51.904;4.256;2023-06-14T07:17:49;4.57;;;3.10;;
48516;SDS011;34310;51.904;4.256;2023-06-14T07:20:17;5.82;;;2.90;;
48516;SDS011;34310;51.904;4.256;2023-06-14T07:22:45;4.10;;;2.90;;
48516;SDS011;34310;51.904;4.256;2023-06-14T07:25:13;4.57;;;2.78;;
48516;SDS011;34310;51.904;4.256;2023-06-14T07:27:42;4.45;;;2.80;;
48516;SDS011;34310;51.904;4.256;2023-06-14T07:30:11;4.55;;;2.47;;
48516;SDS011;34310;51.904;4.256;2023-06-14T07:32:39;4.07;;;2.50;;
48516;SDS011;34310;51.904;4.256;2023-06-14T07:35:06;5.65;;;2.83;;
48516;SDS011;34310;51.904;4.256;2023-06-14T07:37:34;5.30;;;3.05;;
48516;SDS011;34310;51.904;4.256;2023-06-14T07:40:02;4.88;;;2.60;;
48516;SDS011;34310;51.904;4.256;2023-06-14T07:42:34;2.85;;;2.33;;
48516;SDS011;34310;51.904;4.256;2023-06-14T07:45:05;4.57;;;2.40;;
48516;SDS011;34310;51.904;4.256;2023-06-14T07:47:33;3.80;;;2.67;;
48516;SDS011;34310;51.904;4.256;2023-06-14T07:50:01;4.05;;;2.63;;
48516;SDS011;34310;51.904;4.256;2023-06-14T07:52:29;3.50;;;2.60;;
48516;SDS011;34310;51.904;4.256;2023-06-14T07:54:57;3.80;;;2.28;;
48516;SDS011;34310;51.904;4.256;2023-06-14T07:57:24;5.35;;;2.50;;
48516;SDS011;34310;51.904;4.256;2023-06-14T07:59:51;3.85;;;2.80;;
48516;SDS011;34310;51.904;4.256;2023-06-14T08:02:19;5.10;;;2.63;;
48516;SDS011;34310;51.904;4.256;2023-06-14T08:04:46;3.75;;;2.40;;
48516;SDS011;34310;51.904;4.256;2023-06-14T08:07:14;3.35;;;2.30;;
48516;SDS011;34310;51.904;4.256;2023-06-14T08:09:42;3.78;;;2.50;;
48516;SDS011;34310;51.904;4.256;2023-06-14T08:12:09;2.95;;;2.40;;
48516;SDS011;34310;51.904;4.256;2023-06-14T08:14:36;2.80;;;2.10;;
48516;SDS011;34310;51.904;4.256;2023-06-14T08:17:05;3.35;;;2.40;;
48516;SDS011;34310;51.904;4.256;2023-06-14T08:19:32;3.80;;;2.20;;
48516;SDS011;34310;51.904;4.256;2023-06-14T08:22:00;3.58;;;2.35;;
48516;SDS011;34310;51.904;4.256;2023-06-14T08:24:27;3.45;;;2.22;;
48516;SDS011;34310;51.904;4.256;2023-06-14T08:26:55;2.75;;;1.92;;
48516;SDS011;34310;51.904;4.256;2023-06-14T08:29:24;2.97;;;2.10;;
48516;SDS011;34310;51.904;4.256;2023-06-14T08:31:51;3.03;;;2.10;;
48516;SDS011;34310;51.904;4.256;2023-06-14T08:34:18;5.10;;;2.75;;
48516;SDS011;34310;51.904;4.256;2023-06-14T08:36:46;2.10;;;1.80;;
48516;SDS011;34310;51.904;4.256;2023-06-14T08:39:13;5.82;;;2.35;;
48516;SDS011;34310;51.904;4.256;2023-06-14T08:41:41;2.72;;;2.08;;
48516;SDS011;34310;51.904;4.256;2023-06-14T08:44:16;2.28;;;1.88;;
48516;SDS011;34310;51.904;4.256;2023-06-14T08:46:44;3.28;;;2.30;;
48516;SDS011;34310;51.904;4.256;2023-06-14T08:49:13;4.15;;;2.30;;
48516;SDS011;34310;51.904;4.256;2023-06-14T08:51:43;2.92;;;2.10;;
48516;SDS011;34310;51.904;4.256;2023-06-14T08:54:13;3.00;;;2.10;;
48516;SDS011;34310;51.904;4.256;2023-06-14T08:56:41;3.33;;;2.40;;
48516;SDS011;34310;51.904;4.256;2023-06-14T08:59:10;2.90;;;2.13;;
48516;SDS011;34310;51.904;4.256;2023-06-14T09:01:38;3.45;;;2.08;;
48516;SDS011;34310;51.904;4.256;2023-06-14T09:04:11;3.77;;;2.07;;
48516;SDS011;34310;51.904;4.256;2023-06-14T09:06:39;2.40;;;2.17;;
48516;SDS011;34310;51.904;4.256;2023-06-14T09:09:07;3.38;;;2.33;;
48516;SDS011;34310;51.904;4.256;2023-06-14T09:11:34;2.88;;;2.13;;
48516;SDS011;34310;51.904;4.256;2023-06-14T09:14:02;3.72;;;2.22;;
48516;SDS011;34310;51.904;4.256;2023-06-14T09:16:32;4.45;;;2.28;;
48516;SDS011;34310;51.904;4.256;2023-06-14T09:18:59;2.83;;;2.00;;
48516;SDS011;34310;51.904;4.256;2023-06-14T09:21:27;3.50;;;2.28;;
48516;SDS011;34310;51.904;4.256;2023-06-14T09:24:00;3.38;;;2.15;;
48516;SDS011;34310;51.904;4.256;2023-06-14T09:26:28;2.50;;;2.00;;
48516;SDS011;34310;51.904;4.256;2023-06-14T09:28:55;2.55;;;2.20;;
48516;SDS011;34310;51.904;4.256;2023-06-14T09:31:23;4.45;;;2.10;;
48516;SDS011;34310;51.904;4.256;2023-06-14T09:33:51;2.35;;;1.90;;
48516;SDS011;34310;51.904;4.256;2023-06-14T09:36:21;2.97;;;1.77;;
48516;SDS011;34310;51.904;4.256;2023-06-14T09:38:53;2.33;;;1.90;;
48516;SDS011;34310;51.904;4.256;2023-06-14T09:41:36;3.85;;;2.10;;
48516;SDS011;34310;51.904;4.256;2023-06-14T09:44:09;2.03;;;1.80;;
48516;SDS011;34310;51.904;4.256;2023-06-14T09:46:45;2.72;;;1.90;;
48516;SDS011;34310;51.904;4.256;2023-06-14T09:49:13;2.97;;;2.08;;
48516;SDS011;34310;51.904;4.256;2023-06-14T09:51:45;2.40;;;1.90;;
48516;SDS011;34310;51.904;4.256;2023-06-14T09:54:16;2.10;;;1.90;;
48516;SDS011;34310;51.904;4.256;2023-06-14T09:56:48;2.88;;;2.00;;
48516;SDS011;34310;51.904;4.256;2023-06-14T09:59:22;2.40;;;2.00;;
48516;SDS011;34310;51.904;4.256;2023-06-14T10:01:58;2.17;;;1.90;;
48516;SDS011;34310;51.904;4.256;2023-06-14T10:04:27;4.55;;;2.15;;
48516;SDS011;34310;51.904;4.256;2023-06-14T10:06:56;2.00;;;1.88;;
48516;SDS011;34310;51.904;4.256;2023-06-14T10:09:25;1.70;;;1.60;;
48516;SDS011;34310;51.904;4.256;2023-06-14T10:11:56;3.22;;;1.83;;
48516;SDS011;34310;51.904;4.256;2023-06-14T10:14:23;3.38;;;1.92;;
48516;SDS011;34310;51.904;4.256;2023-06-14T10:19:24;2.97;;;1.90;;
48516;SDS011;34310;51.904;4.256;2023-06-14T10:22:02;2.30;;;1.70;;
48516;SDS011;34310;51.904;4.256;2023-06-14T10:24:44;3.38;;;1.80;;
48516;SDS011;34310;51.904;4.256;2023-06-14T10:27:14;2.17;;;1.70;;
48516;SDS011;34310;51.904;4.256;2023-06-14T10:32:20;2.05;;;1.85;;
48516;SDS011;34310;51.904;4.256;2023-06-14T10:35:00;1.92;;;1.77;;
48516;SDS011;34310;51.904;4.256;2023-06-14T10:37:31;1.80;;;1.70;;
48516;SDS011;34310;51.904;4.256;2023-06-14T10:39:59;2.90;;;1.60;;
48516;SDS011;34310;51.904;4.256;2023-06-14T10:42:32;2.47;;;1.70;;
48516;SDS011;34310;51.904;4.256;2023-06-14T10:45:00;1.65;;;1.55;;
48516;SDS011;34310;51.904;4.256;2023-06-14T10:47:29;1.90;;;1.73;;
48516;SDS011;34310;51.904;4.256;2023-06-14T10:50:04;2.42;;;1.58;;
48516;SDS011;34310;51.904;4.256;2023-06-14T10:52:34;1.80;;;1.70;;
48516;SDS011;34310;51.904;4.256;2023-06-14T10:55:11;1.90;;;1.60;;
48516;SDS011;34310;51.904;4.256;2023-06-14T10:57:45;2.03;;;1.70;;
48516;SDS011;34310;51.904;4.256;2023-06-14T11:00:19;1.77;;;1.63;;
48516;SDS011;34310;51.904;4.256;2023-06-14T11:02:59;1.70;;;1.58;;
48516;SDS011;34310;51.904;4.256;2023-06-14T11:05:52;2.05;;;1.70;;
48516;SDS011;34310;51.904;4.256;2023-06-14T11:08:27;1.90;;;1.70;;
48516;SDS011;34310;51.904;4.256;2023-06-14T11:11:01;1.83;;;1.60;;
48516;SDS011;34310;51.904;4.256;2023-06-14T11:13:34;2.03;;;1.60;;
48516;SDS011;34310;51.904;4.256;2023-06-14T11:18:40;1.55;;;1.45;;
48516;SDS011;34310;51.904;4.256;2023-06-14T11:21:09;2.40;;;1.42;;
48516;SDS011;34310;51.904;4.256;2023-06-14T11:23:36;2.15;;;1.67;;
48516;SDS011;34310;51.904;4.256;2023-06-14T11:26:04;2.25;;;1.60;;
48516;SDS011;34310;51.904;4.256;2023-06-14T11:31:05;2.00;;;1.80;;
48516;SDS011;34310;51.904;4.256;2023-06-14T11:33:33;2.38;;;1.63;;
48516;SDS011;34310;51.904;4.256;2023-06-14T11:36:01;2.80;;;1.50;;
48516;SDS011;34310;51.904;4.256;2023-06-14T11:38:34;1.55;;;1.45;;
48516;SDS011;34310;51.904;4.256;2023-06-14T11:41:03;1.45;;;1.33;;
48516;SDS011;34310;51.904;4.256;2023-06-14T11:43:31;1.90;;;1.75;;
48516;SDS011;34310;51.904;4.256;2023-06-14T11:46:01;2.70;;;1.52;;
48516;SDS011;34310;51.904;4.256;2023-06-14T11:48:41;1.58;;;1.48;;
48516;SDS011;34310;51.904;4.256;2023-06-14T11:51:09;1.63;;;1.50;;
48516;SDS011;34310;51.904;4.256;2023-06-14T11:53:37;1.67;;;1.55;;
48516;SDS011;34310;51.904;4.256;2023-06-14T11:56:05;1.45;;;1.35;;
48516;SDS011;34310;51.904;4.256;2023-06-14T11:58:33;1.55;;;1.40;;
48516;SDS011;34310;51.904;4.256;2023-06-14T12:01:02;1.95;;;1.60;;
48516;SDS011;34310;51.904;4.256;2023-06-14T12:03:30;1.45;;;1.35;;
48516;SDS011;34310;51.904;4.256;2023-06-14T12:06:04;1.90;;;1.50;;
48516;SDS011;34310;51.904;4.256;2023-06-14T12:08:37;2.42;;;1.25;;
48516;SDS011;34310;51.904;4.256;2023-06-14T12:11:07;1.73;;;1.55;;
48516;SDS011;34310;51.904;4.256;2023-06-14T12:13:40;1.42;;;1.33;;
48516;SDS011;34310;51.904;4.256;2023-06-14T12:16:08;1.30;;;1.20;;
48516;SDS011;34310;51.904;4.256;2023-06-14T12:18:37;1.30;;;1.20;;
48516;SDS011;34310;51.904;4.256;2023-06-14T12:21:07;2.90;;;1.52;;
48516;SDS011;34310;51.904;4.256;2023-06-14T12:23:43;1.45;;;1.35;;
48516;SDS011;34310;51.904;4.256;2023-06-14T12:26:14;1.58;;;1.45;;
48516;SDS011;34310;51.904;4.256;2023-06-14T12:28:42;1.38;;;1.27;;
48516;SDS011;34310;51.904;4.256;2023-06-14T12:31:12;1.23;;;1.13;;
48516;SDS011;34310;51.904;4.256;2023-06-14T12:33:40;1.58;;;1.40;;
48516;SDS011;34310;51.904;4.256;2023-06-14T12:36:08;1.40;;;1.30;;
48516;SDS011;34310;51.904;4.256;2023-06-14T12:38:37;1.95;;;1.38;;
48516;SDS011;34310;51.904;4.256;2023-06-14T12:41:04;1.40;;;1.30;;
48516;SDS011;34310;51.904;4.256;2023-06-14T12:43:32;1.38;;;1.27;;
48516;SDS011;34310;51.904;4.256;2023-06-14T12:46:00;1.42;;;1.20;;
48516;SDS011;34310;51.904;4.256;2023-06-14T12:48:27;1.58;;;1.30;;
48516;SDS011;34310;51.904;4.256;2023-06-14T12:50:57;1.40;;;1.30;;
48516;SDS011;34310;51.904;4.256;2023-06-14T12:53:25;1.92;;;1.20;;
48516;SDS011;34310;51.904;4.256;2023-06-14T12:55:52;1.55;;;1.40;;
48516;SDS011;34310;51.904;4.256;2023-06-14T12:58:19;1.40;;;1.30;;
48516;SDS011;34310;51.904;4.256;2023-06-14T13:00:47;1.70;;;1.40;;
48516;SDS011;34310;51.904;4.256;2023-06-14T13:03:14;1.27;;;1.17;;
48516;SDS011;34310;51.904;4.256;2023-06-14T13:05:42;1.35;;;1.25;;
48516;SDS011;34310;51.904;4.256;2023-06-14T13:08:10;2.20;;;1.27;;
48516;SDS011;34310;51.904;4.256;2023-06-14T13:10:37;1.80;;;1.20;;
48516;SDS011;34310;51.904;4.256;2023-06-14T13:13:05;1.50;;;1.40;;
48516;SDS011;34310;51.904;4.256;2023-06-14T13:15:34;1.25;;;1.15;;
48516;SDS011;34310;51.904;4.256;2023-06-14T13:18:01;1.85;;;1.33;;
48516;SDS011;34310;51.904;4.256;2023-06-14T13:20:29;1.33;;;1.20;;
48516;SDS011;34310;51.904;4.256;2023-06-14T13:22:57;1.23;;;1.10;;
48516;SDS011;34310;51.904;4.256;2023-06-14T13:25:25;1.25;;;1.17;;
48516;SDS011;34310;51.904;4.256;2023-06-14T13:27:52;1.30;;;1.20;;
48516;SDS011;34310;51.904;4.256;2023-06-14T13:30:20;1.42;;;1.20;;
48516;SDS011;34310;51.904;4.256;2023-06-14T13:32:47;1.40;;;1.30;;
48516;SDS011;34310;51.904;4.256;2023-06-14T13:35:16;1.30;;;1.20;;
48516;SDS011;34310;51.904;4.256;2023-06-14T13:37:46;1.40;;;1.15;;
48516;SDS011;34310;51.904;4.256;2023-06-14T13:40:14;1.38;;;1.20;;
48516;SDS011;34310;51.904;4.256;2023-06-14T13:42:42;1.27;;;1.17;;
48516;SDS011;34310;51.904;4.256;2023-06-14T13:45:10;1.73;;;1.35;;
48516;SDS011;34310;51.904;4.256;2023-06-14T13:47:39;1.27;;;1.17;;
48516;SDS011;34310;51.904;4.256;2023-06-14T13:50:06;1.30;;;1.20;;
48516;SDS011;34310;51.904;4.256;2023-06-14T13:52:34;1.40;;;1.20;;
48516;SDS011;34310;51.904;4.256;2023-06-14T13:55:02;1.20;;;1.15;;
48516;SDS011;34310;51.904;4.256;2023-06-14T13:57:29;1.65;;;1.10;;
48516;SDS011;34310;51.904;4.256;2023-06-14T13:59:57;1.30;;;1.20;;
48516;SDS011;34310;51.904;4.256;2023-06-14T14:02:28;1.30;;;1.20;;
48516;SDS011;34310;51.904;4.256;2023-06-14T14:04:55;1.27;;;1.15;;
48516;SDS011;34310;51.904;4.256;2023-06-14T14:07:23;1.75;;;1.20;;
48516;SDS011;34310;51.904;4.256;2023-06-14T14:09:51;1.05;;;1.00;;
48516;SDS011;34310;51.904;4.256;2023-06-14T14:12:19;1.42;;;1.00;;
48516;SDS011;34310;51.904;4.256;2023-06-14T14:14:46;1.20;;;1.10;;
48516;SDS011;34310;51.904;4.256;2023-06-14T14:17:14;1.30;;;1.13;;
48516;SDS011;34310;51.904;4.256;2023-06-14T14:19:41;1.20;;;1.13;;
48516;SDS011;34310;51.904;4.256;2023-06-14T14:22:09;1.13;;;1.02;;
48516;SDS011;34310;51.904;4.256;2023-06-14T14:24:36;1.17;;;1.10;;
48516;SDS011;34310;51.904;4.256;2023-06-14T14:27:04;1.13;;;1.05;;
48516;SDS011;34310;51.904;4.256;2023-06-14T14:29:31;1.20;;;1.10;;
48516;SDS011;34310;51.904;4.256;2023-06-14T14:31:59;1.20;;;1.10;;
48516;SDS011;34310;51.904;4.256;2023-06-14T14:34:27;1.20;;;1.10;;
48516;SDS011;34310;51.904;4.256;2023-06-14T14:36:54;1.23;;;1.13;;
48516;SDS011;34310;51.904;4.256;2023-06-14T14:39:22;1.00;;;1.00;;
48516;SDS011;34310;51.904;4.256;2023-06-14T14:41:49;1.35;;;1.00;;
48516;SDS011;34310;51.904;4.256;2023-06-14T14:44:17;1.08;;;1.08;;
48516;SDS011;34310;51.904;4.256;2023-06-14T14:46:45;1.23;;;1.00;;
48516;SDS011;34310;51.904;4.256;2023-06-14T14:49:13;1.35;;;1.08;;
48516;SDS011;34310;51.904;4.256;2023-06-14T14:51:40;1.25;;;0.93;;
48516;SDS011;34310;51.904;4.256;2023-06-14T14:54:07;1.02;;;0.93;;
48516;SDS011;34310;51.904;4.256;2023-06-14T14:56:35;1.25;;;1.15;;
48516;SDS011;34310;51.904;4.256;2023-06-14T14:59:04;1.27;;;1.17;;
48516;SDS011;34310;51.904;4.256;2023-06-14T15:01:31;1.58;;;1.27;;
48516;SDS011;34310;51.904;4.256;2023-06-14T15:03:59;1.58;;;1.17;;
48516;SDS011;34310;51.904;4.256;2023-06-14T15:06:27;1.73;;;1.40;;
48516;SDS011;34310;51.904;4.256;2023-06-14T15:08:54;1.20;;;1.00;;
48516;SDS011;34310;51.904;4.256;2023-06-14T15:11:22;1.10;;;1.00;;